Time;durP1;ratioP1;P1;durP2;ratioP2;P2;SDS_P1;SDS_P2;PMS_P1;PMS_P2;Temp;Humidity;BMP_temperature;BMP_pressure;BME280_temperature;BME280_humidity;BME280_pressure;Samples;Min_cycle;Max_cycle;Signal;HPM_P1;HPM_P2
2023/01/07 00:00:13;;;;;;;15.82;8.95;;;;;;;;;;4958684;28;20038;-64
2023/01/07 00:02:39;;;;;;;;;;;;;;;;;;4959287;28;20045;-64
2023/01/07 00:05:06;;;;;;;16.13;8.80;;;;;;;;;;4973648;28;20132;-65
2023/01/07 00:07:32;;;;;;;;;;;;;;;;;;4956516;28;20395;-65
2023/01/07 00:09:58;;;;;;;12.40;6.78;;;;;;;;;;4961892;28;19914;-66
2023/01/07 00:12:24;;;;;;;11.60;6.47;;;;;;;;;;4957962;28;20034;-65
2023/01/07 00:14:50;;;;;;;13.13;5.95;;;;;;;;;;4963124;28;20522;-65
2023/01/07 00:17:16;;;;;;;11.57;4.93;;;;;;;;;;4956500;28;20489;-66
2023/01/07 00:19:42;;;;;;;14.52;5.88;;;;;;;;;;4963333;28;20034;-66
2023/01/07 00:22:09;;;;;;;12.73;5.57;;;;;;;;;;4959640;28;20034;-65
2023/01/07 00:24:35;;;;;;;9.35;5.03;;;;;;;;;;4959940;28;20132;-69
2023/01/07 00:27:01;;;;;;;11.80;4.80;;;;;;;;;;4959264;28;20049;-65
2023/01/07 00:29:27;;;;;;;11.07;4.97;;;;;;;;;;4958921;28;21686;-65
2023/01/07 00:31:53;;;;;;;11.52;5.20;;;;;;;;;;4958965;28;20497;-65
2023/01/07 00:34:22;;;;;;;11.02;5.05;;;;;;;;;;4959131;28;20554;-66
2023/01/07 00:36:48;;;;;;;12.95;6.38;;;;;;;;;;4961657;28;20385;-64
2023/01/07 00:39:16;;;;;;;12.55;6.03;;;;;;;;;;4956761;28;20112;-64
2023/01/07 00:44:32;;;;;;;15.80;7.28;;;;;;;;;;4897616;29;20035;-65
2023/01/07 00:46:58;;;;;;;;;;;;;;;;;;4900403;29;20075;-65
2023/01/07 00:49:24;;;;;;;18.77;7.70;;;;;;;;;;4899871;29;20368;-65
2023/01/07 00:51:50;;;;;;;14.10;7.47;;;;;;;;;;4902712;29;20619;-64
2023/01/07 00:54:16;;;;;;;;;;;;;;;;;;4900072;28;20032;-64
2023/01/07 00:56:42;;;;;;;13.25;6.93;;;;;;;;;;4902272;29;19937;-64
2023/01/07 00:59:09;;;;;;;13.95;7.38;;;;;;;;;;4899015;29;20550;-64
2023/01/07 01:01:35;;;;;;;16.40;7.85;;;;;;;;;;4900731;29;20051;-65
2023/01/07 01:04:01;;;;;;;15.60;7.93;;;;;;;;;;4901365;29;20066;-65
2023/01/07 01:06:27;;;;;;;15.88;7.70;;;;;;;;;;4898787;29;21244;-65
2023/01/07 01:08:55;;;;;;;13.93;6.63;;;;;;;;;;4885360;29;20051;-64
2023/01/07 01:11:21;;;;;;;13.32;6.68;;;;;;;;;;4898895;29;20039;-66
2023/01/07 01:13:47;;;;;;;13.40;6.45;;;;;;;;;;4884748;29;20557;-64
2023/01/07 01:16:15;;;;;;;12.48;5.97;;;;;;;;;;4896185;29;20039;-64
2023/01/07 01:18:42;;;;;;;13.20;6.13;;;;;;;;;;4902021;29;20405;-64
2023/01/07 01:21:08;;;;;;;;;;;;;;;;;;4904199;28;20068;-64
2023/01/07 01:23:34;;;;;;;13.93;6.75;;;;;;;;;;4960597;28;19913;-64
2023/01/07 01:26:11;;;;;;;15.82;6.90;;;;;;;;;;4958563;28;20153;-64
2023/01/07 01:28:37;;;;;;;15.10;6.43;;;;;;;;;;4959037;28;20520;-65
2023/01/07 01:31:04;;;;;;;13.15;6.50;;;;;;;;;;4958681;28;20539;-64
2023/01/07 01:33:30;;;;;;;12.90;5.68;;;;;;;;;;4959681;28;20038;-64
2023/01/07 01:35:57;;;;;;;11.32;6.13;;;;;;;;;;4959532;28;20795;-63
2023/01/07 01:38:23;;;;;;;11.57;5.03;;;;;;;;;;4956852;28;20337;-64
2023/01/07 01:40:49;;;;;;;12.65;5.38;;;;;;;;;;4959937;28;20157;-65
2023/01/07 01:43:44;;;;;;;10.23;5.00;;;;;;;;;;4954881;28;20369;-65
2023/01/07 01:46:10;;;;;;;11.35;4.85;;;;;;;;;;4952645;28;20058;-65
2023/01/07 01:48:38;;;;;;;10.80;4.57;;;;;;;;;;4959656;28;20161;-65
2023/01/07 01:51:05;;;;;;;11.13;4.60;;;;;;;;;;4960080;28;20042;-65
2023/01/07 01:53:32;;;;;;;9.60;4.38;;;;;;;;;;4956729;28;20027;-65
2023/01/07 01:56:02;;;;;;;10.00;3.80;;;;;;;;;;4957700;28;20210;-65
2023/01/07 01:58:40;;;;;;;11.45;4.00;;;;;;;;;;4955296;28;21341;-65
2023/01/07 02:01:06;;;;;;;8.75;3.70;;;;;;;;;;4959580;28;20030;-65
2023/01/07 02:03:34;;;;;;;10.65;4.20;;;;;;;;;;4958559;28;20038;-65
2023/01/07 02:06:00;;;;;;;10.35;4.00;;;;;;;;;;4957611;28;20042;-65
2023/01/07 02:08:27;;;;;;;9.85;4.03;;;;;;;;;;4956753;28;20479;-65
2023/01/07 02:11:07;;;;;;;9.68;3.85;;;;;;;;;;4957567;28;20034;-65
2023/01/07 02:13:37;;;;;;;7.63;3.03;;;;;;;;;;4957158;28;20029;-65
2023/01/07 02:16:26;;;;;;;8.93;3.15;;;;;;;;;;4959850;28;20354;-65
2023/01/07 02:19:15;;;;;;;11.90;4.20;;;;;;;;;;4959775;28;20485;-67
2023/01/07 02:21:57;;;;;;;10.32;4.28;;;;;;;;;;4958242;28;20030;-67
2023/01/07 02:24:23;;;;;;;11.15;4.35;;;;;;;;;;4954898;28;20481;-67
2023/01/07 02:27:05;;;;;;;10.55;4.28;;;;;;;;;;4959480;28;20034;-67
2023/01/07 02:29:31;;;;;;;10.10;4.00;;;;;;;;;;4956463;28;20031;-67
2023/01/07 02:32:00;;;;;;;12.20;4.03;;;;;;;;;;4962433;28;20027;-67
2023/01/07 02:34:32;;;;;;;8.68;3.50;;;;;;;;;;4962338;28;20064;-67
2023/01/07 02:36:59;;;;;;;9.25;3.70;;;;;;;;;;4965268;28;20103;-66
2023/01/07 02:39:38;;;;;;;8.60;3.40;;;;;;;;;;4961173;28;20034;-66
2023/01/07 02:42:08;;;;;;;9.98;4.15;;;;;;;;;;4965840;28;20459;-65
2023/01/07 02:44:48;;;;;;;9.40;3.65;;;;;;;;;;4961149;28;20053;-65
2023/01/07 02:47:19;;;;;;;9.00;3.90;;;;;;;;;;4959454;28;20153;-64
2023/01/07 02:49:47;;;;;;;10.27;4.32;;;;;;;;;;4961635;28;20822;-64
2023/01/07 02:52:21;;;;;;;10.40;4.65;;;;;;;;;;4959109;28;20033;-65
2023/01/07 02:54:51;;;;;;;10.65;4.75;;;;;;;;;;4958634;28;20061;-65
2023/01/07 02:57:18;;;;;;;9.85;4.38;;;;;;;;;;4956279;28;20034;-65
2023/01/07 03:00:03;;;;;;;10.50;3.92;;;;;;;;;;4962857;28;20137;-64
2023/01/07 03:02:47;;;;;;;11.20;3.97;;;;;;;;;;4960000;28;20092;-65
2023/01/07 03:05:13;;;;;;;9.77;3.95;;;;;;;;;;4962922;28;20487;-64
2023/01/07 03:07:58;;;;;;;10.65;4.30;;;;;;;;;;4960189;28;20031;-65
2023/01/07 03:10:26;;;;;;;9.60;4.15;;;;;;;;;;4958429;28;20092;-65
2023/01/07 03:12:56;;;;;;;9.30;3.80;;;;;;;;;;4960321;28;20097;-65
2023/01/07 03:15:25;;;;;;;7.78;3.88;;;;;;;;;;4957510;28;20022;-65
2023/01/07 03:17:56;;;;;;;8.25;3.88;;;;;;;;;;4962057;28;20042;-63
2023/01/07 03:20:23;;;;;;;11.13;3.70;;;;;;;;;;4956116;28;20045;-64
2023/01/07 03:22:50;;;;;;;10.05;3.60;;;;;;;;;;4959157;28;20018;-65
2023/01/07 03:25:17;;;;;;;8.80;3.05;;;;;;;;;;4956025;28;20037;-65
2023/01/07 03:27:45;;;;;;;8.35;3.20;;;;;;;;;;4961679;28;20388;-64
2023/01/07 03:30:13;;;;;;;7.85;3.28;;;;;;;;;;4957194;28;20130;-65
2023/01/07 03:32:44;;;;;;;10.13;3.20;;;;;;;;;;4961392;28;20034;-64
2023/01/07 03:35:10;;;;;;;11.70;4.03;;;;;;;;;;4955359;28;20038;-64
2023/01/07 03:37:38;;;;;;;11.43;3.90;;;;;;;;;;4958665;28;20144;-65
2023/01/07 03:40:08;;;;;;;10.45;4.25;;;;;;;;;;4961075;28;20125;-68
2023/01/07 03:42:41;;;;;;;10.77;4.35;;;;;;;;;;4960930;28;20453;-64
2023/01/07 03:45:09;;;;;;;8.98;3.40;;;;;;;;;;4962553;28;20089;-67
2023/01/07 03:47:35;;;;;;;9.70;3.70;;;;;;;;;;4960319;28;20410;-68
2023/01/07 03:50:01;;;;;;;;;;;;;;;;;;4959269;28;20026;-67
2023/01/07 03:52:27;;;;;;;8.63;3.47;;;;;;;;;;4956778;28;20740;-67
2023/01/07 03:54:53;;;;;;;10.82;4.18;;;;;;;;;;4959690;28;20034;-67
2023/01/07 03:57:20;;;;;;;9.93;3.85;;;;;;;;;;4958137;28;20038;-67
2023/01/07 03:59:46;;;;;;;9.05;3.47;;;;;;;;;;4960304;28;20433;-67
2023/01/07 04:02:12;;;;;;;9.00;3.53;;;;;;;;;;4958228;28;20404;-67
2023/01/07 04:04:38;;;;;;;9.43;3.30;;;;;;;;;;4973257;28;20258;-68
2023/01/07 04:07:04;;;;;;;9.45;3.65;;;;;;;;;;4959964;28;20500;-68
2023/01/07 04:09:30;;;;;;;10.00;3.33;;;;;;;;;;4957584;28;20026;-70
2023/01/07 04:11:56;;;;;;;8.77;3.33;;;;;;;;;;4959554;28;20326;-68
2023/01/07 04:14:23;;;;;;;8.27;3.45;;;;;;;;;;4957041;28;20045;-68
2023/01/07 04:16:52;;;;;;;9.60;3.30;;;;;;;;;;4959836;28;20507;-67
2023/01/07 04:19:19;;;;;;;9.63;4.10;;;;;;;;;;4952689;28;20070;-68
2023/01/07 04:21:45;;;;;;;10.60;3.83;;;;;;;;;;4958389;28;20034;-68
2023/01/07 04:24:11;;;;;;;10.50;4.00;;;;;;;;;;4957109;28;20849;-67
2023/01/07 04:26:38;;;;;;;8.65;3.80;;;;;;;;;;4960538;28;20038;-67
2023/01/07 04:29:04;;;;;;;10.90;4.30;;;;;;;;;;4959197;28;20068;-67
2023/01/07 04:31:30;;;;;;;10.45;3.70;;;;;;;;;;4955110;28;20141;-69
2023/01/07 04:33:56;;;;;;;10.73;3.42;;;;;;;;;;4955761;28;20026;-67
2023/01/07 04:36:22;;;;;;;13.45;3.75;;;;;;;;;;4956694;28;20034;-66
2023/01/07 04:38:48;;;;;;;11.18;3.63;;;;;;;;;;4960158;28;20567;-67
2023/01/07 04:41:15;;;;;;;10.45;3.17;;;;;;;;;;4956409;28;20441;-67
2023/01/07 04:43:41;;;;;;;8.80;3.22;;;;;;;;;;4971213;28;20058;-67
2023/01/07 04:46:07;;;;;;;8.82;3.25;;;;;;;;;;4957578;28;20738;-67
2023/01/07 04:48:33;;;;;;;8.48;2.92;;;;;;;;;;4955636;28;20046;-67
2023/01/07 04:50:59;;;;;;;8.25;3.15;;;;;;;;;;4958498;28;20046;-67
2023/01/07 04:53:25;;;;;;;10.05;3.08;;;;;;;;;;4955415;28;20037;-67
2023/01/07 04:55:52;;;;;;;9.40;3.00;;;;;;;;;;4959273;28;20884;-67
2023/01/07 04:58:18;;;;;;;9.00;3.47;;;;;;;;;;4955587;28;20125;-67
2023/01/07 05:00:45;;;;;;;8.13;3.00;;;;;;;;;;4959397;28;20606;-67
2023/01/07 05:03:11;;;;;;;;;;;;;;;;;;4956534;28;20559;-67
2023/01/07 05:05:37;;;;;;;12.70;3.25;;;;;;;;;;4957286;28;19925;-67
2023/01/07 05:08:03;;;;;;;10.00;3.40;;;;;;;;;;4958029;28;20105;-66
2023/01/07 05:10:31;;;;;;;9.63;3.63;;;;;;;;;;4956374;28;20038;-67
2023/01/07 05:12:57;;;;;;;11.57;3.60;;;;;;;;;;4957063;28;20018;-67
2023/01/07 05:15:24;;;;;;;9.80;3.80;;;;;;;;;;4956644;28;20038;-67
2023/01/07 05:17:50;;;;;;;9.73;4.50;;;;;;;;;;4960367;28;20167;-68
2023/01/07 05:20:16;;;;;;;9.57;4.32;;;;;;;;;;4956936;28;20101;-69
2023/01/07 05:22:42;;;;;;;12.00;4.97;;;;;;;;;;4958216;28;20042;-69
2023/01/07 05:25:09;;;;;;;12.25;5.47;;;;;;;;;;4956842;28;20623;-67
2023/01/07 05:27:35;;;;;;;;;;;;;;;;;;4955939;28;20401;-68
2023/01/07 05:30:01;;;;;;;9.73;4.70;;;;;;;;;;4957003;28;19910;-69
2023/01/07 05:32:27;;;;;;;9.90;4.53;;;;;;;;;;4957664;28;20687;-67
2023/01/07 05:34:53;;;;;;;11.65;4.72;;;;;;;;;;4961205;28;20065;-67
2023/01/07 05:37:19;;;;;;;10.32;4.88;;;;;;;;;;4957328;28;20104;-67
2023/01/07 05:39:46;;;;;;;11.57;4.95;;;;;;;;;;4959089;28;20022;-67
2023/01/07 05:42:12;;;;;;;11.77;4.97;;;;;;;;;;4952097;28;20347;-66
2023/01/07 05:44:38;;;;;;;11.57;5.13;;;;;;;;;;4954527;28;20053;-67
2023/01/07 05:47:04;;;;;;;11.07;5.05;;;;;;;;;;4959239;28;20050;-67
2023/01/07 05:49:30;;;;;;;10.57;5.40;;;;;;;;;;4955690;28;20699;-68
2023/01/07 05:51:56;;;;;;;10.38;5.25;;;;;;;;;;4958127;28;20842;-67
2023/01/07 05:54:22;;;;;;;12.20;5.70;;;;;;;;;;4951839;28;20030;-68
2023/01/07 05:56:49;;;;;;;9.95;4.95;;;;;;;;;;4956031;28;20061;-67
2023/01/07 05:59:15;;;;;;;12.85;5.45;;;;;;;;;;4952087;28;20030;-68
2023/01/07 06:01:41;;;;;;;14.13;5.18;;;;;;;;;;4971472;28;20030;-68
2023/01/07 06:04:07;;;;;;;11.60;4.93;;;;;;;;;;4957929;28;20117;-69
2023/01/07 06:06:33;;;;;;;10.55;4.70;;;;;;;;;;4961663;28;20058;-68
2023/01/07 06:08:59;;;;;;;10.40;4.35;;;;;;;;;;4976511;28;20598;-67
2023/01/07 06:11:25;;;;;;;12.15;4.80;;;;;;;;;;4956734;28;20056;-67
2023/01/07 06:13:52;;;;;;;10.70;3.90;;;;;;;;;;4963590;28;20297;-68
2023/01/07 06:16:18;;;;;;;11.77;3.97;;;;;;;;;;4963451;28;20037;-67
2023/01/07 06:18:44;;;;;;;11.85;4.00;;;;;;;;;;4961651;28;20322;-68
2023/01/07 06:21:10;;;;;;;12.45;3.92;;;;;;;;;;4960081;28;20369;-66
2023/01/07 06:23:36;;;;;;;9.50;3.58;;;;;;;;;;4960565;28;20027;-67
2023/01/07 06:26:03;;;;;;;8.98;3.22;;;;;;;;;;4962847;28;20113;-67
2023/01/07 06:28:29;;;;;;;9.73;3.58;;;;;;;;;;4958705;28;20424;-68
2023/01/07 06:30:55;;;;;;;11.07;3.70;;;;;;;;;;4965500;28;20030;-66
2023/01/07 06:33:21;;;;;;;7.63;3.20;;;;;;;;;;4962928;28;20331;-66
2023/01/07 06:35:47;;;;;;;9.80;3.25;;;;;;;;;;4964828;28;20677;-66
2023/01/07 06:38:14;;;;;;;9.85;3.15;;;;;;;;;;4959695;28;20081;-66
2023/01/07 06:40:40;;;;;;;8.98;2.83;;;;;;;;;;4962682;28;20108;-65
2023/01/07 06:43:06;;;;;;;14.10;5.97;;;;;;;;;;4963149;28;20503;-65
2023/01/07 06:45:32;;;;;;;28.92;17.80;;;;;;;;;;4960360;28;20038;-67
2023/01/07 06:47:58;;;;;;;21.98;13.20;;;;;;;;;;4963037;28;20592;-67
2023/01/07 06:50:24;;;;;;;17.25;9.25;;;;;;;;;;4962087;28;20137;-66
2023/01/07 06:52:51;;;;;;;14.18;7.57;;;;;;;;;;4961739;28;20232;-65
2023/01/07 06:55:17;;;;;;;14.40;5.60;;;;;;;;;;4961735;28;20038;-67
2023/01/07 06:57:43;;;;;;;13.88;5.30;;;;;;;;;;4961975;28;20041;-66
2023/01/07 07:00:10;;;;;;;11.75;4.72;;;;;;;;;;4960737;28;20582;-67
2023/01/07 07:02:36;;;;;;;;;;;;;;;;;;4964901;28;20117;-67
2023/01/07 07:05:02;;;;;;;12.93;5.55;;;;;;;;;;4962898;28;19924;-67
2023/01/07 07:07:28;;;;;;;14.43;5.72;;;;;;;;;;4958598;28;20739;-65
2023/01/07 07:09:54;;;;;;;11.45;6.53;;;;;;;;;;4962659;28;20080;-66
2023/01/07 07:12:20;;;;;;;12.38;6.10;;;;;;;;;;4958470;28;20131;-65
2023/01/07 07:14:46;;;;;;;13.45;6.18;;;;;;;;;;4963798;28;20053;-67
2023/01/07 07:17:13;;;;;;;12.55;5.90;;;;;;;;;;4959731;28;20046;-66
2023/01/07 07:19:39;;;;;;;16.83;6.30;;;;;;;;;;4957820;28;20480;-66
2023/01/07 07:22:05;;;;;;;13.70;4.30;;;;;;;;;;4960766;28;20115;-67
2023/01/07 07:24:31;;;;;;;11.48;3.60;;;;;;;;;;4955186;28;20061;-65
2023/01/07 07:26:58;;;;;;;9.38;3.13;;;;;;;;;;4960780;28;20514;-67
2023/01/07 07:29:25;;;;;;;9.63;3.05;;;;;;;;;;4969220;28;20112;-66
2023/01/07 07:31:51;;;;;;;10.52;2.70;;;;;;;;;;4961449;28;20034;-65
2023/01/07 07:34:17;;;;;;;9.20;3.13;;;;;;;;;;4957234;28;20065;-67
2023/01/07 07:36:44;;;;;;;9.82;2.53;;;;;;;;;;4959030;28;20038;-68
2023/01/07 07:39:10;;;;;;;9.68;3.00;;;;;;;;;;4955898;28;20040;-67
2023/01/07 07:41:37;;;;;;;8.02;2.42;;;;;;;;;;4957973;28;20611;-67
2023/01/07 07:44:03;;;;;;;9.70;2.90;;;;;;;;;;4955831;28;20036;-66
2023/01/07 07:46:29;;;;;;;8.30;2.60;;;;;;;;;;4960093;28;20069;-66
2023/01/07 07:48:55;;;;;;;10.48;2.88;;;;;;;;;;4958197;28;20046;-66
2023/01/07 07:51:22;;;;;;;9.20;2.65;;;;;;;;;;4956955;28;20026;-68
2023/01/07 07:53:48;;;;;;;9.13;2.72;;;;;;;;;;4961707;28;20182;-66
2023/01/07 07:56:15;;;;;;;10.40;3.08;;;;;;;;;;4954109;28;20453;-67
2023/01/07 07:58:42;;;;;;;10.85;2.80;;;;;;;;;;4969792;28;20432;-65
2023/01/07 08:01:08;;;;;;;10.15;2.72;;;;;;;;;;4956075;28;20042;-65
2023/01/07 08:03:35;;;;;;;10.32;2.58;;;;;;;;;;4959827;28;20038;-67
2023/01/07 08:06:01;;;;;;;;;;;;;;;;;;4970504;28;20049;-66
2023/01/07 08:08:27;;;;;;;9.68;2.80;;;;;;;;;;4955155;28;23759;-66
2023/01/07 08:10:54;;;;;;;8.38;2.60;;;;;;;;;;4959116;28;20322;-67
2023/01/07 08:13:21;;;;;;;9.18;2.92;;;;;;;;;;4950387;28;20155;-66
2023/01/07 08:15:47;;;;;;;9.85;2.63;;;;;;;;;;4956426;28;20046;-67
2023/01/07 08:18:13;;;;;;;12.27;2.97;;;;;;;;;;4955140;28;20054;-68
2023/01/07 08:20:39;;;;;;;12.10;3.70;;;;;;;;;;4958176;28;20109;-67
2023/01/07 08:23:06;;;;;;;9.35;3.25;;;;;;;;;;4955822;28;20519;-67
2023/01/07 08:25:33;;;;;;;9.57;2.92;;;;;;;;;;4957265;28;20140;-67
2023/01/07 08:28:00;;;;;;;9.20;3.53;;;;;;;;;;4961321;28;20094;-67
2023/01/07 08:30:26;;;;;;;10.15;3.30;;;;;;;;;;4955154;28;20472;-68
2023/01/07 08:32:53;;;;;;;10.50;3.40;;;;;;;;;;4959600;28;20026;-67
2023/01/07 08:35:19;;;;;;;10.63;3.17;;;;;;;;;;4957617;28;20030;-68
2023/01/07 08:37:45;;;;;;;10.88;3.35;;;;;;;;;;4959683;28;20097;-68
2023/01/07 08:40:12;;;;;;;12.85;3.50;;;;;;;;;;4953514;28;20093;-67
2023/01/07 08:42:38;;;;;;;11.63;3.28;;;;;;;;;;4958920;28;20617;-69
2023/01/07 08:45:08;;;;;;;10.80;3.30;;;;;;;;;;4953531;28;20035;-68
2023/01/07 08:47:34;;;;;;;11.98;4.00;;;;;;;;;;4959920;28;20142;-68
2023/01/07 08:50:00;;;;;;;11.50;5.03;;;;;;;;;;4957508;28;20038;-68
2023/01/07 08:52:27;;;;;;;11.25;5.07;;;;;;;;;;4953218;28;20065;-68
2023/01/07 08:54:53;;;;;;;13.10;4.80;;;;;;;;;;4956430;28;20085;-70
2023/01/07 08:57:19;;;;;;;14.45;4.90;;;;;;;;;;4954043;28;20512;-69
2023/01/07 08:59:45;;;;;;;12.95;5.13;;;;;;;;;;4970356;28;20089;-68
2023/01/07 09:02:18;;;;;;;10.82;4.95;;;;;;;;;;4955941;28;20588;-69
2023/01/07 09:04:45;;;;;;;11.45;4.75;;;;;;;;;;4959256;28;20575;-67
2023/01/07 09:07:10;;;;;;;;;;;;;;;;;;4955660;28;20494;-68
2023/01/07 09:09:37;;;;;;;16.70;6.68;;;;;;;;;;4955293;28;19910;-69
2023/01/07 09:12:03;;;;;;;;;;;;;;;;;;4954798;28;20030;-67
2023/01/07 09:14:29;;;;;;;13.93;5.07;;;;;;;;;;4954088;28;20316;-67
2023/01/07 09:16:55;;;;;;;16.35;5.45;;;;;;;;;;4958058;28;20094;-68
2023/01/07 09:19:21;;;;;;;11.25;4.32;;;;;;;;;;4966872;28;20121;-69
2023/01/07 09:21:47;;;;;;;10.25;4.20;;;;;;;;;;4958497;28;20240;-67
2023/01/07 09:24:13;;;;;;;12.13;3.72;;;;;;;;;;4953128;28;20031;-67
2023/01/07 09:26:40;;;;;;;12.07;3.55;;;;;;;;;;4955983;28;20038;-68
2023/01/07 09:29:06;;;;;;;12.25;4.10;;;;;;;;;;4966579;28;20065;-67
2023/01/07 09:31:32;;;;;;;;;;;;;;;;;;4951556;28;20864;-68
2023/01/07 09:33:58;;;;;;;13.45;4.30;;;;;;;;;;4951941;28;20405;-67
2023/01/07 09:36:25;;;;;;;12.18;4.10;;;;;;;;;;4952058;28;20063;-67
2023/01/07 09:38:52;;;;;;;9.18;3.17;;;;;;;;;;4969746;28;20088;-68
2023/01/07 09:41:18;;;;;;;;;;;;;;;;;;4949971;28;20038;-68
2023/01/07 09:43:47;;;;;;;13.20;3.28;;;;;;;;;;4949858;28;20297;-68
2023/01/07 09:46:13;;;;;;;11.57;3.38;;;;;;;;;;4952416;28;20034;-68
2023/01/07 09:48:45;;;;;;;13.65;3.45;;;;;;;;;;4957093;28;20391;-68
2023/01/07 09:51:11;;;;;;;10.13;3.65;;;;;;;;;;4955473;28;20034;-69
2023/01/07 09:53:39;;;;;;;10.45;3.47;;;;;;;;;;4958623;28;20026;-68
2023/01/07 09:56:07;;;;;;;12.88;3.75;;;;;;;;;;4950508;28;20038;-67
2023/01/07 09:58:33;;;;;;;10.55;3.20;;;;;;;;;;4952808;28;24329;-67
2023/01/07 10:00:59;;;;;;;;;;;;;;;;;;4954014;28;20385;-68
2023/01/07 10:03:32;;;;;;;10.18;3.45;;;;;;;;;;4954143;28;19914;-68
2023/01/07 10:06:05;;;;;;;12.32;3.60;;;;;;;;;;4950808;28;20072;-68
2023/01/07 10:08:31;;;;;;;10.48;3.03;;;;;;;;;;4949840;28;20034;-67
2023/01/07 10:10:57;;;;;;;;;;;;;;;;;;4949325;28;20382;-69
2023/01/07 10:13:23;;;;;;;13.23;3.72;;;;;;;;;;4950635;28;20330;-68
2023/01/07 10:15:49;;;;;;;;;;;;;;;;;;4954017;28;20069;-69
2023/01/07 13:18:18;;;;;;;13.10;3.53;;;;;;;;;;4913987;28;20077;-70
2023/01/07 13:21:02;;;;;;;11.38;3.15;;;;;;;;;;4929040;28;20568;-67
2023/01/07 13:23:48;;;;;;;9.00;3.22;;;;;;;;;;4933767;28;20051;-63
2023/01/07 13:26:46;;;;;;;11.23;3.25;;;;;;;;;;4931708;28;20037;-70
2023/01/07 13:29:21;;;;;;;11.25;3.58;;;;;;;;;;4880333;29;20067;-69
2023/01/07 13:31:56;;;;;;;12.38;3.88;;;;;;;;;;4890812;29;20043;-70
2023/01/07 13:34:25;;;;;;;9.35;3.30;;;;;;;;;;4894548;29;20806;-68
2023/01/07 13:36:51;;;;;;;13.15;3.97;;;;;;;;;;4891305;29;20070;-69
2023/01/07 13:39:21;;;;;;;10.43;3.58;;;;;;;;;;4893868;29;20039;-71
2023/01/07 13:41:53;;;;;;;9.82;3.10;;;;;;;;;;4889340;29;20107;-69
2023/01/07 13:44:24;;;;;;;10.25;3.40;;;;;;;;;;4893103;29;20046;-65
2023/01/07 13:46:51;;;;;;;13.13;3.45;;;;;;;;;;4888130;29;20731;-67
2023/01/07 13:49:28;;;;;;;8.93;2.92;;;;;;;;;;4895504;29;20740;-70
2023/01/07 13:51:55;;;;;;;10.05;3.15;;;;;;;;;;4886744;29;20987;-67
2023/01/07 13:54:39;;;;;;;10.25;3.33;;;;;;;;;;4898724;29;20039;-68
2023/01/07 13:57:38;;;;;;;11.02;3.28;;;;;;;;;;4889948;29;20034;-65
2023/01/07 14:00:05;;;;;;;12.27;4.97;;;;;;;;;;4841868;29;20049;-66
2023/01/07 14:03:00;;;;;;;16.13;7.32;;;;;;;;;;4844084;29;20211;-64
2023/01/07 14:05:28;;;;;;;10.68;3.92;;;;;;;;;;4843263;29;20041;-73
2023/01/07 14:07:56;;;;;;;12.23;3.53;;;;;;;;;;4858230;29;20035;-69
2023/01/07 14:10:23;;;;;;;11.02;3.33;;;;;;;;;;4843190;29;20511;-67
2023/01/07 14:13:07;;;;;;;8.95;2.70;;;;;;;;;;4850206;29;20589;-70
2023/01/07 14:15:34;;;;;;;10.98;3.55;;;;;;;;;;4851683;29;20156;-69
2023/01/07 14:18:06;;;;;;;10.07;3.40;;;;;;;;;;4852183;29;20060;-69
2023/01/07 14:20:40;;;;;;;13.02;3.50;;;;;;;;;;4853488;29;20063;-65
2023/01/07 14:23:10;;;;;;;10.90;4.10;;;;;;;;;;4853257;29;20094;-69
2023/01/07 14:25:42;;;;;;;11.88;3.50;;;;;;;;;;4843205;29;20040;-71
2023/01/07 14:28:21;;;;;;;9.52;3.15;;;;;;;;;;4856224;29;20051;-70
2023/01/07 14:30:49;;;;;;;10.15;3.50;;;;;;;;;;4854930;29;20031;-69
2023/01/07 14:33:21;;;;;;;11.57;3.72;;;;;;;;;;4858352;29;20120;-69
2023/01/07 14:35:53;;;;;;;8.98;3.25;;;;;;;;;;4862669;29;20039;-68
2023/01/07 14:38:31;;;;;;;12.45;5.20;;;;;;;;;;4895651;29;20044;-68
2023/01/07 14:41:03;;;;;;;12.30;3.50;;;;;;;;;;4885758;28;20032;-69
2023/01/07 14:43:42;;;;;;;10.68;3.30;;;;;;;;;;4938981;28;20485;-69
2023/01/07 14:46:20;;;;;;;10.20;4.00;;;;;;;;;;4930758;28;20026;-65
2023/01/07 14:49:07;;;;;;;13.80;5.25;;;;;;;;;;4934897;28;20067;-65
2023/01/07 14:51:39;;;;;;;12.32;4.28;;;;;;;;;;4932052;28;20047;-71
2023/01/07 14:54:19;;;;;;;13.15;5.00;;;;;;;;;;4938312;28;20065;-71
2023/01/07 14:56:45;;;;;;;10.88;4.85;;;;;;;;;;4953344;28;20173;-68
2023/01/07 14:59:11;;;;;;;;;;;;;;;;;;4936410;28;20082;-65
2023/01/07 15:01:43;;;;;;;14.65;5.00;;;;;;;;;;4938293;28;20459;-64
2023/01/07 15:04:22;;;;;;;14.02;4.68;;;;;;;;;;4936412;28;20027;-64
2023/01/07 15:06:50;;;;;;;11.13;4.95;;;;;;;;;;4948378;28;20536;-69
2023/01/07 15:17:49;;;;;;;14.23;5.45;;;;;;;;;;4934188;28;20073;-63
2023/01/07 15:20:15;;;;;;;14.73;5.05;;;;;;;;;;4937528;28;20043;-64
2023/01/07 15:22:41;;;;;;;;;;;;;;;;;;4939665;28;20038;-65
2023/01/07 15:25:16;;;;;;;13.57;5.32;;;;;;;;;;4948353;28;19948;-64
2023/01/07 15:28:08;;;;;;;14.80;5.47;;;;;;;;;;4933394;28;20062;-66
2023/01/07 15:30:43;;;;;;;13.77;4.93;;;;;;;;;;4924149;28;20579;-64
2023/01/07 15:33:09;;;;;;;11.75;5.05;;;;;;;;;;4928691;28;20126;-65
2023/01/07 15:35:35;;;;;;;;;;;;;;;;;;4933825;28;20069;-68
2023/01/07 15:38:03;;;;;;;18.75;9.13;;;;;;;;;;4931844;28;19914;-65
2023/01/07 15:40:30;;;;;;;13.30;6.22;;;;;;;;;;4937031;28;20031;-67
2023/01/07 15:42:57;;;;;;;26.15;15.25;;;;;;;;;;4933665;28;20682;-67
2023/01/07 15:45:25;;;;;;;19.83;13.93;;;;;;;;;;4932817;28;20496;-66
2023/01/07 15:47:52;;;;;;;29.05;22.67;;;;;;;;;;4926809;28;20023;-68
2023/01/07 15:50:18;;;;;;;16.73;7.95;;;;;;;;;;4933058;28;20382;-69
2023/01/07 15:52:48;;;;;;;20.50;12.30;;;;;;;;;;4933889;28;20442;-70
2023/01/07 15:55:21;;;;;;;35.53;26.23;;;;;;;;;;4934254;28;20042;-70
2023/01/07 15:57:47;;;;;;;24.08;19.77;;;;;;;;;;4930580;28;20041;-67
2023/01/07 16:00:14;;;;;;;16.08;9.45;;;;;;;;;;4932364;28;20061;-68
2023/01/07 16:02:43;;;;;;;18.48;10.48;;;;;;;;;;4932528;28;20042;-65
2023/01/07 16:05:09;;;;;;;28.77;14.27;;;;;;;;;;4934454;28;20125;-68
2023/01/07 16:07:42;;;;;;;13.95;5.38;;;;;;;;;;4938302;28;20092;-68
2023/01/07 16:10:18;;;;;;;17.48;8.25;;;;;;;;;;4933799;28;20374;-69
2023/01/07 16:12:47;;;;;;;25.08;15.88;;;;;;;;;;4935820;28;20509;-69
2023/01/07 16:15:21;;;;;;;36.85;24.27;;;;;;;;;;4929795;28;20460;-69
2023/01/07 16:17:51;;;;;;;56.83;48.40;;;;;;;;;;4931479;28;20069;-69
2023/01/07 16:20:21;;;;;;;22.80;16.02;;;;;;;;;;4938273;28;20039;-67
2023/01/07 16:22:48;;;;;;;25.55;16.77;;;;;;;;;;4933992;28;20142;-66
2023/01/07 16:25:21;;;;;;;32.75;23.90;;;;;;;;;;4935332;28;20061;-66
2023/01/07 16:27:48;;;;;;;19.05;9.45;;;;;;;;;;4934371;28;20038;-67
2023/01/07 16:30:15;;;;;;;32.15;17.55;;;;;;;;;;4937383;28;20093;-68
2023/01/07 16:32:42;;;;;;;17.75;8.23;;;;;;;;;;4938269;28;20050;-66
2023/01/07 16:35:13;;;;;;;45.42;31.25;;;;;;;;;;4938236;28;20030;-66
2023/01/07 16:37:39;;;;;;;19.15;9.00;;;;;;;;;;4936506;28;20402;-66
2023/01/07 16:40:11;;;;;;;19.55;8.85;;;;;;;;;;4932713;28;20123;-63
2023/01/07 16:42:38;;;;;;;18.50;8.27;;;;;;;;;;4938704;28;20030;-63
2023/01/07 16:45:04;;;;;;;14.63;8.35;;;;;;;;;;4929556;28;20077;-67
2023/01/07 16:47:32;;;;;;;24.73;15.63;;;;;;;;;;4940491;28;20038;-64
2023/01/07 16:50:18;;;;;;;16.85;6.13;;;;;;;;;;4935376;28;20050;-67
2023/01/07 16:52:54;;;;;;;19.37;10.07;;;;;;;;;;4933537;28;20584;-63
2023/01/07 16:55:39;;;;;;;16.20;7.07;;;;;;;;;;4928949;28;20346;-63
2023/01/07 16:58:14;;;;;;;17.25;7.97;;;;;;;;;;4922962;28;20395;-64
2023/01/07 17:00:47;;;;;;;20.45;8.60;;;;;;;;;;4925530;28;20062;-65
2023/01/07 17:03:13;;;;;;;47.10;31.10;;;;;;;;;;4927406;28;20183;-67
2023/01/07 17:05:39;;;;;;;;;;;;;;;;;;4927749;28;20046;-67
2023/01/07 17:08:07;;;;;;;35.25;24.75;;;;;;;;;;4921858;28;19914;-61
2023/01/07 17:10:33;;;;;;;16.92;8.77;;;;;;;;;;4927709;28;20061;-62
2023/01/07 17:12:59;;;;;;;20.67;9.38;;;;;;;;;;4925210;28;20530;-63
2023/01/07 17:15:32;;;;;;;17.55;6.95;;;;;;;;;;4932061;28;20046;-62
2023/01/07 17:18:21;;;;;;;19.40;9.52;;;;;;;;;;4925116;28;20039;-69
2023/01/07 17:20:49;;;;;;;18.95;9.88;;;;;;;;;;4920737;28;20314;-62
2023/01/07 17:23:25;;;;;;;15.38;6.93;;;;;;;;;;4928856;28;20050;-62
2023/01/07 17:26:14;;;;;;;16.73;8.90;;;;;;;;;;4923650;28;20049;-61
2023/01/07 17:28:46;;;;;;;18.27;7.47;;;;;;;;;;4924719;28;20294;-66
2023/01/07 17:31:12;;;;;;;17.63;9.05;;;;;;;;;;4932516;28;20471;-62
2023/01/07 17:33:39;;;;;;;22.10;9.32;;;;;;;;;;4930892;28;20045;-62
2023/01/07 17:36:05;;;;;;;25.17;14.95;;;;;;;;;;4930494;28;20030;-69
2023/01/07 17:38:31;;;;;;;;;;;;;;;;;;4926785;28;20042;-62
2023/01/07 17:40:57;;;;;;;64.15;44.95;;;;;;;;;;4926664;28;19914;-63
2023/01/07 17:43:34;;;;;;;38.63;24.50;;;;;;;;;;4930047;28;20719;-62
2023/01/07 17:46:00;;;;;;;68.57;51.40;;;;;;;;;;4922163;28;20035;-63
2023/01/07 17:48:27;;;;;;;53.08;40.70;;;;;;;;;;4929555;28;20370;-62
2023/01/07 17:50:56;;;;;;;41.45;29.67;;;;;;;;;;4924366;28;21257;-61
2023/01/07 17:53:27;;;;;;;46.88;35.35;;;;;;;;;;4924058;28;20210;-62
2023/01/07 17:55:53;;;;;;;82.28;67.40;;;;;;;;;;4926594;28;20045;-61
2023/01/07 17:58:27;;;;;;;48.55;35.13;;;;;;;;;;4926610;28;20205;-63